sensor_id;sensor_type;location;lat;lon;timestamp;pressure;altitude;pressure_sealevel;temperature;humidity
8501;BME280;4288;48.484;10.024;2024-03-23T08:12:32;94847.44;;;20.63;54.17
8501;BME280;4288;48.484;10.024;2024-03-23T08:14:59;94837.53;;;21.07;53.26
8501;BME280;4288;48.484;10.024;2024-03-23T08:17:25;94836.50;;;21.43;52.57
8501;BME280;4288;48.484;10.024;2024-03-23T08:19:53;94842.91;;;21.69;51.49
8501;BME280;4288;48.484;10.024;2024-03-23T08:22:19;94844.28;;;21.88;49.87
8501;BME280;4288;48.484;10.024;2024-03-23T08:24:46;94854.41;;;22.02;50.39
8501;BME280;4288;48.484;10.024;2024-03-23T08:27:13;94860.78;;;22.14;49.61
8501;BME280;4288;48.484;10.024;2024-03-23T08:29:41;94862.84;;;22.19;47.84
8501;BME280;4288;48.484;10.024;2024-03-23T08:32:08;94866.13;;;22.23;49.17
8501;BME280;4288;48.484;10.024;2024-03-23T08:34:35;94876.91;;;22.32;49.55
8501;BME280;4288;48.484;10.024;2024-03-23T08:37:02;94887.25;;;22.43;49.53
8501;BME280;4288;48.484;10.024;2024-03-23T08:39:29;94911.38;;;22.50;49.43
8501;BME280;4288;48.484;10.024;2024-03-23T08:41:55;94896.06;;;22.52;49.75
8501;BME280;4288;48.484;10.024;2024-03-23T08:44:23;94893.91;;;22.56;49.57
8501;BME280;4288;48.484;10.024;2024-03-23T08:46:50;94906.59;;;22.59;49.78
8501;BME280;4288;48.484;10.024;2024-03-23T08:49:18;94903.94;;;22.65;49.54
8501;BME280;4288;48.484;10.024;2024-03-23T08:51:44;94918.59;;;22.67;49.63
8501;BME280;4288;48.484;10.024;2024-03-23T08:54:12;94916.91;;;22.70;49.72
8501;BME280;4288;48.484;10.024;2024-03-23T08:56:38;94934.56;;;22.74;49.84
8501;BME280;4288;48.484;10.024;2024-03-23T08:59:05;94943.00;;;22.76;49.25
8501;BME280;4288;48.484;10.024;2024-03-23T09:01:32;94926.66;;;22.76;49.06
8501;BME280;4288;48.484;10.024;2024-03-23T09:04:01;94947.91;;;22.72;49.44
8501;BME280;4288;48.484;10.024;2024-03-23T09:06:27;94961.00;;;22.68;48.24
8501;BME280;4288;48.484;10.024;2024-03-23T09:08:54;94959.00;;;22.69;48.77
8501;BME280;4288;48.484;10.024;2024-03-23T09:11:21;94968.88;;;22.66;44.70
8501;BME280;4288;48.484;10.024;2024-03-23T09:13:48;94980.31;;;22.56;47.16
8501;BME280;4288;48.484;10.024;2024-03-23T09:16:15;94996.66;;;22.56;48.59
8501;BME280;4288;48.484;10.024;2024-03-23T09:18:42;95004.06;;;22.55;48.81
8501;BME280;4288;48.484;10.024;2024-03-23T09:21:13;95008.75;;;22.55;48.88
8501;BME280;4288;48.484;10.024;2024-03-23T09:23:42;95019.50;;;22.58;48.90
8501;BME280;4288;48.484;10.024;2024-03-23T09:26:09;95016.31;;;22.60;48.81
8501;BME280;4288;48.484;10.024;2024-03-23T09:28:36;95025.06;;;22.64;48.72
8501;BME280;4288;48.484;10.024;2024-03-23T09:31:03;95033.50;;;22.66;48.57
8501;BME280;4288;48.484;10.024;2024-03-23T09:33:31;95032.84;;;22.71;48.62
8501;BME280;4288;48.484;10.024;2024-03-23T09:35:57;95029.19;;;22.74;48.33
8501;BME280;4288;48.484;10.024;2024-03-23T09:38:26;95029.84;;;22.83;47.95
8501;BME280;4288;48.484;10.024;2024-03-23T09:40:53;95045.25;;;22.86;48.13
8501;BME280;4288;48.484;10.024;2024-03-23T09:43:20;95038.59;;;22.87;48.19
8501;BME280;4288;48.484;10.024;2024-03-23T09:45:47;95034.63;;;22.88;47.93
8501;BME280;4288;48.484;10.024;2024-03-23T09:48:16;95036.69;;;22.93;48.00
8501;BME280;4288;48.484;10.024;2024-03-23T09:50:44;95031.53;;;22.95;47.95
8501;BME280;4288;48.484;10.024;2024-03-23T09:53:12;95028.31;;;22.97;47.72
8501;BME280;4288;48.484;10.024;2024-03-23T09:55:41;95045.44;;;22.97;47.61
8501;BME280;4288;48.484;10.024;2024-03-23T09:58:09;95064.25;;;22.95;47.63
8501;BME280;4288;48.484;10.024;2024-03-23T10:00:38;95075.31;;;22.92;48.14
8501;BME280;4288;48.484;10.024;2024-03-23T10:03:06;95080.75;;;22.92;47.87
8501;BME280;4288;48.484;10.024;2024-03-23T10:05:33;95056.22;;;22.92;47.99
8501;BME280;4288;48.484;10.024;2024-03-23T10:08:02;95037.91;;;22.92;47.66
8501;BME280;4288;48.484;10.024;2024-03-23T10:10:45;95029.44;;;22.90;47.92
8501;BME280;4288;48.484;10.024;2024-03-23T10:13:24;95008.69;;;22.93;48.07
8501;BME280;4288;48.484;10.024;2024-03-23T10:15:56;95013.75;;;23.00;48.01
8501;BME280;4288;48.484;10.024;2024-03-23T10:18:24;95006.88;;;23.05;48.01
8501;BME280;4288;48.484;10.024;2024-03-23T10:21:08;94984.13;;;23.08;48.08
8501;BME280;4288;48.484;10.024;2024-03-23T10:23:38;94999.75;;;23.07;48.68
8501;BME280;4288;48.484;10.024;2024-03-23T10:26:21;94994.38;;;23.13;48.73
8501;BME280;4288;48.484;10.024;2024-03-23T10:28:56;95004.78;;;23.14;48.90
8501;BME280;4288;48.484;10.024;2024-03-23T10:31:25;94986.66;;;23.11;48.84
8501;BME280;4288;48.484;10.024;2024-03-23T10:33:53;94994.84;;;23.11;49.08
8501;BME280;4288;48.484;10.024;2024-03-23T10:36:21;95002.00;;;23.09;47.78
8501;BME280;4288;48.484;10.024;2024-03-23T10:38:51;95013.38;;;23.07;49.39
8501;BME280;4288;48.484;10.024;2024-03-23T10:41:17;95051.81;;;23.09;50.12
8501;BME280;4288;48.484;10.024;2024-03-23T10:43:48;95059.25;;;23.09;50.04
8501;BME280;4288;48.484;10.024;2024-03-23T10:46:15;95064.97;;;23.11;50.09
8501;BME280;4288;48.484;10.024;2024-03-23T10:48:43;95074.38;;;23.10;49.94
8501;BME280;4288;48.484;10.024;2024-03-23T10:51:10;95079.09;;;23.09;49.80
8501;BME280;4288;48.484;10.024;2024-03-23T10:53:38;95087.16;;;23.03;48.29
8501;BME280;4288;48.484;10.024;2024-03-23T10:56:05;95090.06;;;23.00;47.33
8501;BME280;4288;48.484;10.024;2024-03-23T10:58:37;95099.19;;;22.97;49.05
8501;BME280;4288;48.484;10.024;2024-03-23T11:01:05;95103.69;;;23.00;49.44
8501;BME280;4288;48.484;10.024;2024-03-23T11:03:34;95075.72;;;22.99;49.24
8501;BME280;4288;48.484;10.024;2024-03-23T11:06:03;95072.69;;;22.97;49.04
8501;BME280;4288;48.484;10.024;2024-03-23T11:08:32;95081.59;;;22.98;48.96
8501;BME280;4288;48.484;10.024;2024-03-23T11:11:17;95078.69;;;23.01;49.00
8501;BME280;4288;48.484;10.024;2024-03-23T11:13:47;95082.25;;;23.08;49.01
8501;BME280;4288;48.484;10.024;2024-03-23T11:16:16;95080.38;;;23.14;49.35
8501;BME280;4288;48.484;10.024;2024-03-23T11:18:44;95088.09;;;23.15;48.80
8501;BME280;4288;48.484;10.024;2024-03-23T11:21:11;95083.94;;;23.20;48.80
8501;BME280;4288;48.484;10.024;2024-03-23T11:24:13;95091.66;;;23.21;49.02
8501;BME280;4288;48.484;10.024;2024-03-23T11:26:40;95083.75;;;23.23;48.71
8501;BME280;4288;48.484;10.024;2024-03-23T11:29:10;95091.66;;;23.21;48.85
8501;BME280;4288;48.484;10.024;2024-03-23T11:31:38;95084.50;;;23.24;49.02
8501;BME280;4288;48.484;10.024;2024-03-23T11:34:06;95083.31;;;23.25;48.63
8501;BME280;4288;48.484;10.024;2024-03-23T11:36:33;95087.50;;;23.26;49.01
8501;BME280;4288;48.484;10.024;2024-03-23T11:39:12;95067.22;;;23.27;49.03
8501;BME280;4288;48.484;10.024;2024-03-23T11:41:46;95083.09;;;23.28;49.34
8501;BME280;4288;48.484;10.024;2024-03-23T11:44:17;95079.00;;;23.33;49.31
8501;BME280;4288;48.484;10.024;2024-03-23T11:46:45;95084.69;;;23.35;49.49
8501;BME280;4288;48.484;10.024;2024-03-23T11:49:23;95066.09;;;23.33;49.25
8501;BME280;4288;48.484;10.024;2024-03-23T11:51:50;95074.75;;;23.32;49.40
8501;BME280;4288;48.484;10.024;2024-03-23T11:54:21;95074.75;;;23.32;49.34
8501;BME280;4288;48.484;10.024;2024-03-23T11:57:07;95080.09;;;23.26;49.46
8501;BME280;4288;48.484;10.024;2024-03-23T11:59:36;95102.09;;;23.23;49.52
8501;BME280;4288;48.484;10.024;2024-03-23T12:02:09;95121.84;;;23.18;49.19
8501;BME280;4288;48.484;10.024;2024-03-23T12:04:37;95136.16;;;23.13;49.28
8501;BME280;4288;48.484;10.024;2024-03-23T12:07:11;95141.31;;;23.11;49.48
8501;BME280;4288;48.484;10.024;2024-03-23T12:09:39;95131.63;;;23.10;49.44
8501;BME280;4288;48.484;10.024;2024-03-23T12:12:08;95145.72;;;23.08;49.39
8501;BME280;4288;48.484;10.024;2024-03-23T12:14:35;95129.84;;;23.07;49.52
8501;BME280;4288;48.484;10.024;2024-03-23T12:17:14;95154.38;;;23.07;49.60
8501;BME280;4288;48.484;10.024;2024-03-23T12:19:42;95141.78;;;23.09;49.25
8501;BME280;4288;48.484;10.024;2024-03-23T12:22:08;95141.03;;;23.09;49.32
8501;BME280;4288;48.484;10.024;2024-03-23T12:24:36;95154.66;;;23.09;49.28
8501;BME280;4288;48.484;10.024;2024-03-23T12:27:03;95144.03;;;23.11;49.21
8501;BME280;4288;48.484;10.024;2024-03-23T12:29:31;95145.53;;;23.12;49.47
8501;BME280;4288;48.484;10.024;2024-03-23T12:32:00;95149.78;;;23.13;48.98
8501;BME280;4288;48.484;10.024;2024-03-23T12:34:29;95161.44;;;23.13;49.16
8501;BME280;4288;48.484;10.024;2024-03-23T12:36:56;95159.16;;;23.12;49.23
8501;BME280;4288;48.484;10.024;2024-03-23T12:39:24;95164.63;;;23.12;49.21
8501;BME280;4288;48.484;10.024;2024-03-23T12:41:50;95173.56;;;23.12;49.16
8501;BME280;4288;48.484;10.024;2024-03-23T12:44:18;95157.69;;;23.11;49.16
8501;BME280;4288;48.484;10.024;2024-03-23T12:46:45;95158.59;;;23.08;49.24
8501;BME280;4288;48.484;10.024;2024-03-23T12:49:13;95154.38;;;23.07;48.80
8501;BME280;4288;48.484;10.024;2024-03-23T12:51:48;95155.13;;;23.07;49.07
8501;BME280;4288;48.484;10.024;2024-03-23T12:54:20;95151.19;;;23.08;49.09
8501;BME280;4288;48.484;10.024;2024-03-23T12:56:46;95136.63;;;23.11;48.65
8501;BME280;4288;48.484;10.024;2024-03-23T12:59:14;95138.31;;;23.09;46.84
8501;BME280;4288;48.484;10.024;2024-03-23T13:01:41;95142.72;;;23.06;48.18
8501;BME280;4288;48.484;10.024;2024-03-23T13:04:08;95148.44;;;23.08;48.25
8501;BME280;4288;48.484;10.024;2024-03-23T13:06:35;95147.06;;;23.13;48.62
8501;BME280;4288;48.484;10.024;2024-03-23T13:09:04;95149.88;;;23.18;48.71
8501;BME280;4288;48.484;10.024;2024-03-23T13:11:31;95150.44;;;23.22;48.49
8501;BME280;4288;48.484;10.024;2024-03-23T13:13:59;95136.13;;;23.27;48.72
8501;BME280;4288;48.484;10.024;2024-03-23T13:16:25;95144.59;;;23.29;48.74
8501;BME280;4288;48.484;10.024;2024-03-23T13:18:53;95145.47;;;23.21;41.20
8501;BME280;4288;48.484;10.024;2024-03-23T13:21:19;95136.97;;;23.04;42.66
8501;BME280;4288;48.484;10.024;2024-03-23T13:23:47;95140.91;;;22.88;42.51
8501;BME280;4288;48.484;10.024;2024-03-23T13:26:15;95120.78;;;22.86;45.97
8501;BME280;4288;48.484;10.024;2024-03-23T13:28:43;95119.88;;;22.89;47.18
8501;BME280;4288;48.484;10.024;2024-03-23T13:31:10;95124.94;;;22.96;47.38
8501;BME280;4288;48.484;10.024;2024-03-23T13:33:38;95120.81;;;23.00;47.56
8501;BME280;4288;48.484;10.024;2024-03-23T13:36:05;95113.19;;;23.05;47.83
8501;BME280;4288;48.484;10.024;2024-03-23T13:38:32;95106.34;;;23.09;47.88
8501;BME280;4288;48.484;10.024;2024-03-23T13:40:59;95102.94;;;23.14;47.83
8501;BME280;4288;48.484;10.024;2024-03-23T13:43:29;95101.53;;;23.19;48.00
8501;BME280;4288;48.484;10.024;2024-03-23T13:45:57;95088.47;;;23.23;47.87
8501;BME280;4288;48.484;10.024;2024-03-23T13:48:27;95083.59;;;22.97;39.21
8501;BME280;4288;48.484;10.024;2024-03-23T13:50:59;95090.25;;;22.67;40.33
8501;BME280;4288;48.484;10.024;2024-03-23T13:53:27;95079.91;;;22.71;42.75
8501;BME280;4288;48.484;10.024;2024-03-23T13:55:53;95081.06;;;22.79;44.05
8501;BME280;4288;48.484;10.024;2024-03-23T13:58:21;95060.38;;;22.87;44.62
8501;BME280;4288;48.484;10.024;2024-03-23T14:00:49;95063.75;;;22.97;45.41
8501;BME280;4288;48.484;10.024;2024-03-23T14:03:16;95055.00;;;23.08;45.48
8501;BME280;4288;48.484;10.024;2024-03-23T14:05:43;95055.56;;;23.12;46.03
8501;BME280;4288;48.484;10.024;2024-03-23T14:08:10;95044.09;;;23.22;45.71
8501;BME280;4288;48.484;10.024;2024-03-23T14:10:41;95030.34;;;23.31;45.89
8501;BME280;4288;48.484;10.024;2024-03-23T14:13:08;95043.41;;;23.42;46.03
8501;BME280;4288;48.484;10.024;2024-03-23T14:15:35;95043.28;;;23.51;45.66
8501;BME280;4288;48.484;10.024;2024-03-23T14:18:05;95039.69;;;23.59;45.89
8501;BME280;4288;48.484;10.024;2024-03-23T14:20:32;95035.34;;;23.67;45.63
8501;BME280;4288;48.484;10.024;2024-03-23T14:22:59;95029.25;;;23.78;45.64
8501;BME280;4288;48.484;10.024;2024-03-23T14:25:26;95032.44;;;23.91;45.53
8501;BME280;4288;48.484;10.024;2024-03-23T14:27:55;95033.69;;;23.96;45.44
8501;BME280;4288;48.484;10.024;2024-03-23T14:30:21;95037.84;;;24.06;45.55
8501;BME280;4288;48.484;10.024;2024-03-23T14:32:49;95029.47;;;24.15;45.27
8501;BME280;4288;48.484;10.024;2024-03-23T14:35:17;95028.81;;;24.20;45.21
8501;BME280;4288;48.484;10.024;2024-03-23T14:37:44;95044.31;;;24.28;45.32
8501;BME280;4288;48.484;10.024;2024-03-23T14:40:13;95048.00;;;24.25;45.26
8501;BME280;4288;48.484;10.024;2024-03-23T14:42:40;95044.72;;;24.21;45.39
8501;BME280;4288;48.484;10.024;2024-03-23T14:45:08;95036.47;;;24.16;45.23
8501;BME280;4288;48.484;10.024;2024-03-23T14:47:35;95037.44;;;24.13;45.13
8501;BME280;4288;48.484;10.024;2024-03-23T14:50:02;95034.94;;;24.15;45.50
8501;BME280;4288;48.484;10.024;2024-03-23T14:52:30;95043.97;;;24.21;45.53
8501;BME280;4288;48.484;10.024;2024-03-23T14:54:57;95033.53;;;24.19;45.40
8501;BME280;4288;48.484;10.024;2024-03-23T14:57:24;95024.03;;;24.15;45.57
8501;BME280;4288;48.484;10.024;2024-03-23T14:59:50;95027.94;;;24.08;45.72
8501;BME280;4288;48.484;10.024;2024-03-23T15:02:19;95031.59;;;24.05;45.51
8501;BME280;4288;48.484;10.024;2024-03-23T15:04:45;95034.81;;;24.04;45.89
8501;BME280;4288;48.484;10.024;2024-03-23T15:07:12;95037.47;;;23.98;45.98
8501;BME280;4288;48.484;10.024;2024-03-23T15:09:40;95036.63;;;23.92;45.86
8501;BME280;4288;48.484;10.024;2024-03-23T15:12:08;95043.72;;;23.84;46.11
8501;BME280;4288;48.484;10.024;2024-03-23T15:14:34;95038.69;;;23.77;44.07
8501;BME280;4288;48.484;10.024;2024-03-23T15:17:02;95041.47;;;23.62;41.38
8501;BME280;4288;48.484;10.024;2024-03-23T15:19:33;95052.78;;;23.55;40.66
8501;BME280;4288;48.484;10.024;2024-03-23T15:22:00;95049.78;;;23.53;42.01
8501;BME280;4288;48.484;10.024;2024-03-23T15:24:26;95057.75;;;23.57;43.27
8501;BME280;4288;48.484;10.024;2024-03-23T15:26:55;95061.81;;;23.61;44.01
8501;BME280;4288;48.484;10.024;2024-03-23T15:29:22;95067.53;;;23.63;44.19
8501;BME280;4288;48.484;10.024;2024-03-23T15:31:49;95053.63;;;23.61;44.46
8501;BME280;4288;48.484;10.024;2024-03-23T15:34:18;95071.03;;;23.64;44.89
8501;BME280;4288;48.484;10.024;2024-03-23T15:36:47;95058.88;;;23.65;44.93
8501;BME280;4288;48.484;10.024;2024-03-23T15:39:15;95062.56;;;23.62;44.91
8501;BME280;4288;48.484;10.024;2024-03-23T15:41:44;95060.00;;;23.58;45.17
8501;BME280;4288;48.484;10.024;2024-03-23T15:44:12;95065.00;;;23.60;45.42
8501;BME280;4288;48.484;10.024;2024-03-23T15:46:40;95068.94;;;23.59;45.44
8501;BME280;4288;48.484;10.024;2024-03-23T15:49:06;95057.56;;;23.60;45.72
8501;BME280;4288;48.484;10.024;2024-03-23T15:51:34;95068.66;;;23.57;45.80
8501;BME280;4288;48.484;10.024;2024-03-23T15:54:03;95072.63;;;23.56;45.97
8501;BME280;4288;48.484;10.024;2024-03-23T15:56:30;95080.28;;;23.52;45.73
8501;BME280;4288;48.484;10.024;2024-03-23T15:58:57;95074.25;;;23.48;45.73
8501;BME280;4288;48.484;10.024;2024-03-23T16:01:33;95111.13;;;23.43;45.69
8501;BME280;4288;48.484;10.024;2024-03-23T16:04:01;95104.06;;;23.37;45.36
8501;BME280;4288;48.484;10.024;2024-03-23T16:06:28;95102.03;;;23.32;45.53
8501;BME280;4288;48.484;10.024;2024-03-23T16:08:55;95095.97;;;23.28;45.29
8501;BME280;4288;48.484;10.024;2024-03-23T16:11:23;95101.16;;;23.26;45.79
8501;BME280;4288;48.484;10.024;2024-03-23T16:13:49;95103.13;;;23.25;45.78
8501;BME280;4288;48.484;10.024;2024-03-23T16:16:16;95092.69;;;23.24;45.63
8501;BME280;4288;48.484;10.024;2024-03-23T16:18:44;95095.13;;;23.22;45.81
8501;BME280;4288;48.484;10.024;2024-03-23T16:21:12;95087.16;;;23.18;45.88
8501;BME280;4288;48.484;10.024;2024-03-23T16:23:38;95094.28;;;23.16;45.80
8501;BME280;4288;48.484;10.024;2024-03-23T16:26:07;95091.13;;;23.17;46.09
8501;BME280;4288;48.484;10.024;2024-03-23T16:28:35;95085.84;;;23.14;46.13
8501;BME280;4288;48.484;10.024;2024-03-23T16:31:04;95083.88;;;23.14;46.31
8501;BME280;4288;48.484;10.024;2024-03-23T16:33:32;95072.88;;;23.09;43.12
8501;BME280;4288;48.484;10.024;2024-03-23T16:36:02;95065.72;;;22.96;42.16
8501;BME280;4288;48.484;10.024;2024-03-23T16:38:31;95065.94;;;22.93;43.20
8501;BME280;4288;48.484;10.024;2024-03-23T16:41:01;95059.91;;;22.89;43.86
8501;BME280;4288;48.484;10.024;2024-03-23T16:43:28;95068.56;;;22.87;44.35
8501;BME280;4288;48.484;10.024;2024-03-23T16:45:57;95068.75;;;22.84;44.95
8501;BME280;4288;48.484;10.024;2024-03-23T16:48:25;95068.19;;;22.80;45.08
8501;BME280;4288;48.484;10.024;2024-03-23T16:50:53;95063.84;;;22.73;44.87
8501;BME280;4288;48.484;10.024;2024-03-23T16:53:21;95073.22;;;22.72;44.75
8501;BME280;4288;48.484;10.024;2024-03-23T16:55:54;95069.22;;;22.68;45.23
8501;BME280;4288;48.484;10.024;2024-03-23T16:58:22;95074.84;;;22.64;45.56
8501;BME280;4288;48.484;10.024;2024-03-23T17:00:49;95069.13;;;22.62;45.26
8501;BME280;4288;48.484;10.024;2024-03-23T17:03:16;95081.22;;;22.61;45.63
8501;BME280;4288;48.484;10.024;2024-03-23T17:05:44;95065.34;;;22.60;45.65
8501;BME280;4288;48.484;10.024;2024-03-23T17:08:10;95061.88;;;22.59;45.74
8501;BME280;4288;48.484;10.024;2024-03-23T17:10:40;95064.31;;;22.57;45.95
8501;BME280;4288;48.484;10.024;2024-03-23T17:13:07;95060.06;;;22.56;46.22
8501;BME280;4288;48.484;10.024;2024-03-23T17:15:41;95064.47;;;22.54;46.25
8501;BME280;4288;48.484;10.024;2024-03-23T17:18:08;95054.03;;;22.52;46.34
8501;BME280;4288;48.484;10.024;2024-03-23T17:20:35;95070.38;;;22.52;46.35
8501;BME280;4288;48.484;10.024;2024-03-23T17:23:02;95070.09;;;22.50;46.51
8501;BME280;4288;48.484;10.024;2024-03-23T17:25:30;95065.84;;;22.49;46.32
8501;BME280;4288;48.484;10.024;2024-03-23T17:27:58;95079.75;;;22.51;46.95
8501;BME280;4288;48.484;10.024;2024-03-23T17:30:25;95075.53;;;22.50;46.90
8501;BME280;4288;48.484;10.024;2024-03-23T17:32:52;95070.09;;;22.50;47.08
8501;BME280;4288;48.484;10.024;2024-03-23T17:35:20;95070.56;;;22.49;47.26
8501;BME280;4288;48.484;10.024;2024-03-23T17:37:47;95068.59;;;22.49;47.27
8501;BME280;4288;48.484;10.024;2024-03-23T17:40:15;95068.28;;;22.47;47.15
8501;BME280;4288;48.484;10.024;2024-03-23T17:42:42;95075.25;;;22.48;47.25
8501;BME280;4288;48.484;10.024;2024-03-23T17:45:11;95070.72;;;22.45;47.28
8501;BME280;4288;48.484;10.024;2024-03-23T17:47:40;95070.72;;;22.45;47.45
8501;BME280;4288;48.484;10.024;2024-03-23T17:50:09;95074.41;;;22.42;47.46
8501;BME280;4288;48.484;10.024;2024-03-23T17:52:36;95086.09;;;22.34;43.35
8501;BME280;4288;48.484;10.024;2024-03-23T17:55:04;95086.78;;;22.05;39.89
8501;BME280;4288;48.484;10.024;2024-03-23T17:57:30;95084.88;;;21.64;41.15
8501;BME280;4288;48.484;10.024;2024-03-23T17:59:58;95089.75;;;21.60;44.14
8501;BME280;4288;48.484;10.024;2024-03-23T18:02:26;95096.06;;;21.66;45.01
8501;BME280;4288;48.484;10.024;2024-03-23T18:04:53;95104.34;;;21.71;45.63
8501;BME280;4288;48.484;10.024;2024-03-23T18:07:20;95102.50;;;21.77;46.07
8501;BME280;4288;48.484;10.024;2024-03-23T18:09:48;95091.47;;;21.81;46.30
8501;BME280;4288;48.484;10.024;2024-03-23T18:12:15;95095.53;;;21.85;46.49
8501;BME280;4288;48.484;10.024;2024-03-23T18:14:44;95098.06;;;21.89;46.50
8501;BME280;4288;48.484;10.024;2024-03-23T18:17:11;95096.41;;;21.91;46.35
8501;BME280;4288;48.484;10.024;2024-03-23T18:19:40;95099.41;;;21.93;46.46
8501;BME280;4288;48.484;10.024;2024-03-23T18:22:06;95098.94;;;21.95;46.62
8501;BME280;4288;48.484;10.024;2024-03-23T18:24:34;95095.03;;;21.96;46.76
8501;BME280;4288;48.484;10.024;2024-03-23T18:27:00;95094.56;;;21.97;46.93
8501;BME280;4288;48.484;10.024;2024-03-23T18:29:28;95095.31;;;21.98;46.94
8501;BME280;4288;48.484;10.024;2024-03-23T18:31:55;95094.09;;;21.99;46.78
8501;BME280;4288;48.484;10.024;2024-03-23T18:34:22;95088.63;;;21.99;47.02
8501;BME280;4288;48.484;10.024;2024-03-23T18:36:51;95097.56;;;21.99;47.24
8501;BME280;4288;48.484;10.024;2024-03-23T18:39:18;95087.44;;;22.00;46.99
8501;BME280;4288;48.484;10.024;2024-03-23T18:41:44;95073.06;;;21.99;46.79
8501;BME280;4288;48.484;10.024;2024-03-23T18:44:12;95073.81;;;22.00;46.79
8501;BME280;4288;48.484;10.024;2024-03-23T18:46:38;95076.56;;;22.00;47.17
8501;BME280;4288;48.484;10.024;2024-03-23T18:49:06;95077.75;;;21.99;47.22
8501;BME280;4288;48.484;10.024;2024-03-23T18:51:32;95083.19;;;21.99;46.99
8501;BME280;4288;48.484;10.024;2024-03-23T18:54:01;95085.91;;;21.99;47.21
8501;BME280;4288;48.484;10.024;2024-03-23T18:56:27;95085.91;;;21.99;47.29
8501;BME280;4288;48.484;10.024;2024-03-23T18:58:55;95083.66;;;21.97;47.32
8501;BME280;4288;48.484;10.024;2024-03-23T19:01:21;95099.53;;;21.99;47.35
8501;BME280;4288;48.484;10.024;2024-03-23T19:03:49;95106.19;;;21.98;47.19
8501;BME280;4288;48.484;10.024;2024-03-23T19:06:15;95104.69;;;21.97;47.12
8501;BME280;4288;48.484;10.024;2024-03-23T19:08:43;95109.34;;;21.96;47.27
8501;BME280;4288;48.484;10.024;2024-03-23T19:11:10;95107.41;;;21.97;47.05
8501;BME280;4288;48.484;10.024;2024-03-23T19:13:38;95107.41;;;21.97;47.29
8501;BME280;4288;48.484;10.024;2024-03-23T19:16:05;95108.63;;;21.96;47.31
8501;BME280;4288;48.484;10.024;2024-03-23T19:18:32;95095.03;;;21.96;47.25
8501;BME280;4288;48.484;10.024;2024-03-23T19:20:59;95092.00;;;21.94;47.20
8501;BME280;4288;48.484;10.024;2024-03-23T19:23:28;95093.22;;;21.93;47.19
8501;BME280;4288;48.484;10.024;2024-03-23T19:25:55;95108.03;;;21.92;47.11
8501;BME280;4288;48.484;10.024;2024-03-23T19:28:25;95101.84;;;21.91;47.01
8501;BME280;4288;48.484;10.024;2024-03-23T19:30:52;95092.91;;;21.91;47.39
8501;BME280;4288;48.484;10.024;2024-03-23T19:33:20;95098.38;;;21.91;47.37
8501;BME280;4288;48.484;10.024;2024-03-23T19:35:53;95107.00;;;21.89;47.61
8501;BME280;4288;48.484;10.024;2024-03-23T19:38:21;95109.25;;;21.91;47.70
8501;BME280;4288;48.484;10.024;2024-03-23T19:40:52;95097.16;;;21.92;47.82
8501;BME280;4288;48.484;10.024;2024-03-23T19:43:20;95090.97;;;21.91;48.12
8501;BME280;4288;48.484;10.024;2024-03-23T19:45:48;95087.00;;;21.92;48.12
8501;BME280;4288;48.484;10.024;2024-03-23T19:48:15;95089.28;;;21.94;48.83
8501;BME280;4288;48.484;10.024;2024-03-23T19:50:41;95088.81;;;21.95;49.00
8501;BME280;4288;48.484;10.024;2024-03-23T19:53:09;95082.63;;;21.95;49.26
8501;BME280;4288;48.484;10.024;2024-03-23T19:55:35;95086.84;;;21.96;49.39
8501;BME280;4288;48.484;10.024;2024-03-23T19:58:04;95086.09;;;21.95;49.62
8501;BME280;4288;48.484;10.024;2024-03-23T20:00:32;95085.63;;;21.97;50.01
8501;BME280;4288;48.484;10.024;2024-03-23T20:03:01;95083.97;;;21.99;49.84
8501;BME280;4288;48.484;10.024;2024-03-23T20:05:32;95077.75;;;21.99;50.35
8501;BME280;4288;48.484;10.024;2024-03-23T20:07:59;95081.53;;;22.01;50.56
8501;BME280;4288;48.484;10.024;2024-03-23T20:10:25;95075.31;;;22.01;51.09
8501;BME280;4288;48.484;10.024;2024-03-23T20:12:53;95083.00;;;22.02;51.34
8501;BME280;4288;48.484;10.024;2024-03-23T20:15:19;95077.88;;;22.04;51.71
8501;BME280;4288;48.484;10.024;2024-03-23T20:17:47;95082.09;;;22.05;51.91
8501;BME280;4288;48.484;10.024;2024-03-23T20:20:15;95085.13;;;22.07;52.19
8501;BME280;4288;48.484;10.024;2024-03-23T20:22:43;95094.31;;;22.10;52.60
8501;BME280;4288;48.484;10.024;2024-03-23T20:25:09;95097.03;;;22.10;52.82
8501;BME280;4288;48.484;10.024;2024-03-23T20:27:37;95105.47;;;22.12;53.34
8501;BME280;4288;48.484;10.024;2024-03-23T20:30:04;95102.75;;;22.12;53.39
8501;BME280;4288;48.484;10.024;2024-03-23T20:32:35;95104.56;;;22.15;53.57
8501;BME280;4288;48.484;10.024;2024-03-23T20:35:01;95108.34;;;22.18;53.80
8501;BME280;4288;48.484;10.024;2024-03-23T20:37:30;95104.38;;;22.19;54.10
8501;BME280;4288;48.484;10.024;2024-03-23T20:39:57;95099.69;;;22.19;54.38
8501;BME280;4288;48.484;10.024;2024-03-23T20:42:24;95099.22;;;22.21;54.91
8501;BME280;4288;48.484;10.024;2024-03-23T20:44:50;95098.00;;;22.22;55.06
8501;BME280;4288;48.484;10.024;2024-03-23T20:47:20;95077.44;;;22.21;55.05
8501;BME280;4288;48.484;10.024;2024-03-23T20:49:46;95079.97;;;22.24;54.76
